Time;durP1;ratioP1;P1;durP2;ratioP2;P2;SDS_P1;SDS_P2;PMS_P1;PMS_P2;Temp;Humidity;BMP_temperature;BMP_pressure;BME280_temperature;BME280_humidity;BME280_pressure;Samples;Min_cycle;Max_cycle;Signal;HPM_P1;HPM_P2
2020/12/22 00:00:35;;;;;;;31.75;15.38;;;;;;;-2.99;79.37;101829.89;1709354;83;21215;-79
2020/12/22 00:03:03;;;;;;;30.43;15.90;;;;;;;-2.98;79.40;101826.22;1720885;83;21161;-75
2020/12/22 00:05:31;;;;;;;30.65;15.05;;;;;;;-2.98;79.39;101827.55;1723935;83;21131;-80
2020/12/22 00:07:59;;;;;;;30.17;15.30;;;;;;;-2.99;79.43;101829.41;1722235;82;21148;-75
2020/12/22 00:10:27;;;;;;;33.23;15.48;;;;;;;-2.98;79.43;101832.91;1685843;83;21189;-81
2020/12/22 00:12:55;;;;;;;33.80;15.75;;;;;;;-2.98;79.40;101833.77;1706138;83;21663;-81
2020/12/22 00:15:23;;;;;;;27.87;14.93;;;;;;;-2.96;79.37;101830.98;1706431;83;21152;-76
2020/12/22 00:17:52;;;;;;;31.57;16.37;;;;;;;-2.96;79.24;101833.66;1701897;84;21215;-83
2020/12/22 00:20:20;;;;;;;35.70;15.55;;;;;;;-2.96;79.17;101824.30;1722647;82;21660;-81
2020/12/22 00:22:49;;;;;;;32.65;16.07;;;;;;;-2.95;79.32;101828.17;1688792;83;21753;-76
2020/12/22 00:25:17;;;;;;;31.00;15.33;;;;;;;-2.94;79.20;101827.69;1685012;83;21152;-78
2020/12/22 00:27:47;;;;;;;29.90;14.40;;;;;;;-2.94;79.11;101831.71;1722610;82;21676;-82
2020/12/22 00:30:15;;;;;;;31.20;15.28;;;;;;;-2.95;79.34;101818.80;1720496;82;21140;-81
2020/12/22 00:32:43;;;;;;;29.40;14.87;;;;;;;-2.96;79.21;101819.77;1723833;82;21158;-81
2020/12/22 00:35:12;;;;;;;31.30;14.13;;;;;;;-2.96;79.23;101821.61;1685940;84;21208;-81
2020/12/22 00:37:39;;;;;;;29.87;13.95;;;;;;;-2.96;79.28;101821.61;1722646;83;21223;-75
2020/12/22 00:40:07;;;;;;;25.75;13.48;;;;;;;-2.97;78.94;101817.22;1705472;82;21177;-79
2020/12/22 00:42:35;;;;;;;27.60;13.78;;;;;;;-2.97;79.10;101821.23;1706956;84;21213;-75
2020/12/22 00:45:03;;;;;;;23.47;12.90;;;;;;;-2.97;79.16;101822.58;1700850;83;21167;-76
2020/12/22 00:47:30;;;;;;;32.00;15.20;;;;;;;-2.99;78.82;101817.83;1701288;84;21592;-76
2020/12/22 00:49:58;;;;;;;28.15;14.13;;;;;;;-3.00;79.21;101818.80;1716264;83;21647;-77
2020/12/22 00:52:26;;;;;;;29.92;14.45;;;;;;;-3.00;79.10;101815.64;1719459;83;21144;-80
2020/12/22 00:54:54;;;;;;;26.52;13.13;;;;;;;-3.00;79.23;101817.45;1715394;83;21165;-80
2020/12/22 00:57:22;;;;;;;27.32;14.25;;;;;;;-2.99;79.13;101815.16;1701591;83;21144;-81
2020/12/22 00:59:55;;;;;;;29.10;13.43;;;;;;;-3.01;78.97;101814.44;1696572;84;21180;-82
2020/12/22 01:02:23;;;;;;;26.68;13.08;;;;;;;-3.04;79.05;101814.67;1700792;84;21166;-82
2020/12/22 01:04:51;;;;;;;26.13;13.93;;;;;;;-3.03;79.18;101811.86;1699827;84;21344;-79
2020/12/22 01:07:19;;;;;;;28.42;13.53;;;;;;;-2.99;79.20;101801.77;1723121;82;21137;-79
2020/12/22 01:09:47;;;;;;;25.55;12.88;;;;;;;-2.98;79.07;101801.62;1692333;83;21610;-78
2020/12/22 01:12:16;;;;;;;27.20;12.97;;;;;;;-2.99;79.12;101795.06;1718571;83;21596;-80
2020/12/22 01:14:44;;;;;;;26.60;13.38;;;;;;;-3.02;78.95;101791.29;1723183;81;21132;-80
2020/12/22 01:17:12;;;;;;;25.60;12.40;;;;;;;-3.07;78.98;101790.33;1687866;83;21132;-79
2020/12/22 01:19:41;;;;;;;26.03;13.03;;;;;;;-3.06;79.08;101788.51;1697874;83;21279;-77
2020/12/22 01:22:09;;;;;;;28.32;13.35;;;;;;;-3.06;79.04;101788.51;1695614;84;21209;-77
2020/12/22 01:24:37;;;;;;;25.80;12.58;;;;;;;-3.05;79.22;101791.53;1719903;83;21123;-77
2020/12/22 01:27:05;;;;;;;21.70;11.65;;;;;;;-3.04;79.18;101791.91;1723170;82;21129;-76
2020/12/22 01:29:32;;;;;;;25.10;12.33;;;;;;;-3.00;78.93;101792.02;1723294;82;21145;-76
2020/12/22 01:32:00;;;;;;;24.75;12.95;;;;;;;-3.06;78.96;101791.19;1724106;83;21165;-81
2020/12/22 01:34:28;;;;;;;22.75;11.60;;;;;;;-3.08;79.05;101787.27;1674849;83;21695;-76
2020/12/22 01:36:56;;;;;;;21.55;11.28;;;;;;;-3.06;79.12;101788.00;1686914;85;21207;-79
2020/12/22 01:39:23;;;;;;;21.43;11.63;;;;;;;-3.05;79.02;101788.38;1683358;83;21253;-82
2020/12/22 01:41:51;;;;;;;21.42;11.18;;;;;;;-3.07;78.98;101782.78;1689455;83;21179;-81
2020/12/22 01:44:19;;;;;;;21.57;11.35;;;;;;;-3.08;79.20;101781.92;1693612;83;21152;-80
2020/12/22 01:46:48;;;;;;;23.52;11.08;;;;;;;-3.09;78.97;101782.91;1708925;84;21192;-80
2020/12/22 01:49:25;;;;;;;19.13;10.90;;;;;;;-3.08;79.00;101780.58;1690519;84;21201;-80
2020/12/22 01:51:55;;;;;;;22.70;10.60;;;;;;;-3.08;79.00;101778.38;1716618;83;21601;-76
2020/12/22 01:54:25;;;;;;;21.13;10.50;;;;;;;-3.05;79.12;101779.48;1711765;83;21168;-78
2020/12/22 01:56:53;;;;;;;21.50;11.77;;;;;;;-3.03;79.22;101773.51;1708158;83;21656;-79
2020/12/22 01:59:21;;;;;;;20.75;11.08;;;;;;;-3.04;79.19;101774.02;1699112;84;21176;-76
2020/12/22 02:01:50;;;;;;;19.42;10.53;;;;;;;-3.01;79.10;101770.24;1687067;84;21177;-77
2020/12/22 02:04:18;;;;;;;20.37;10.78;;;;;;;-2.99;78.74;101767.80;1710946;82;21295;-78
2020/12/22 02:06:45;;;;;;;21.87;10.85;;;;;;;-3.00;78.38;101771.44;1697294;83;21320;-77
2020/12/22 02:09:14;;;;;;;21.70;10.77;;;;;;;-2.99;78.47;101770.96;1691077;83;21231;-75
2020/12/22 02:11:42;;;;;;;20.57;10.93;;;;;;;-3.00;78.73;101770.59;1703144;84;21164;-75
2020/12/22 02:14:10;;;;;;;20.97;10.98;;;;;;;-3.00;78.49;101767.91;1706563;84;21636;-74
2020/12/22 02:16:39;;;;;;;22.63;11.17;;;;;;;-3.02;78.67;101762.69;1693343;83;21157;-75
2020/12/22 02:19:09;;;;;;;18.43;10.03;;;;;;;-3.04;78.51;101763.79;1698928;84;21188;-75
2020/12/22 02:21:36;;;;;;;;;;;;;;;-3.14;78.75;101760.16;1687780;84;21176;-76
2020/12/22 02:24:04;;;;;;;18.57;9.93;;;;;;;-3.18;78.89;101758.20;1713242;84;20227;-76
2020/12/22 02:26:32;;;;;;;21.15;10.75;;;;;;;-3.17;79.02;101757.72;1700020;84;21641;-79
2020/12/22 02:29:00;;;;;;;19.92;10.95;;;;;;;-3.16;78.81;101748.72;1701959;84;21200;-81
2020/12/22 02:31:27;;;;;;;21.42;10.15;;;;;;;-3.14;78.96;101754.80;1698622;84;21176;-76
2020/12/22 02:33:55;;;;;;;21.85;11.22;;;;;;;-3.18;78.91;101758.68;1702887;84;21184;-75
2020/12/22 02:36:25;;;;;;;21.13;10.83;;;;;;;-3.19;79.00;101758.33;1698544;84;21236;-80
2020/12/22 02:38:53;;;;;;;22.05;11.20;;;;;;;-3.18;79.17;101751.50;1713377;84;21200;-78
2020/12/22 02:41:22;;;;;;;20.32;10.18;;;;;;;-3.17;79.01;101748.34;1700106;84;21454;-76
2020/12/22 02:43:50;;;;;;;21.37;10.87;;;;;;;-3.17;78.80;101747.00;1711700;84;21272;-78
2020/12/22 02:46:18;;;;;;;18.50;9.28;;;;;;;-3.16;78.83;101747.38;1702200;84;21164;-80
2020/12/22 02:48:46;;;;;;;18.37;9.30;;;;;;;-3.15;78.51;101750.41;1696952;84;21149;-77
2020/12/22 02:51:13;;;;;;;18.40;9.80;;;;;;;-3.18;78.39;101744.81;1699354;84;21121;-77
2020/12/22 02:53:41;;;;;;;19.27;9.55;;;;;;;-3.19;78.27;101748.97;1675341;84;21656;-75
2020/12/22 02:56:10;;;;;;;19.13;9.43;;;;;;;-3.17;78.32;101748.34;1688321;84;21204;-75
2020/12/22 02:58:38;;;;;;;16.77;9.55;;;;;;;-3.17;78.25;101749.69;1706604;84;21137;-80
2020/12/22 03:01:07;;;;;;;21.00;10.10;;;;;;;-3.25;78.19;101752.98;1703693;82;21176;-77
2020/12/22 03:03:35;;;;;;;18.48;9.43;;;;;;;-3.31;78.13;101756.99;1695691;83;21172;-75
2020/12/22 03:06:03;;;;;;;;;;;;;;;-3.31;78.45;101754.31;1726931;82;21106;-76
2020/12/22 03:08:30;;;;;;;19.27;9.53;;;;;;;-3.30;78.31;101761.39;1708764;83;20218;-77
2020/12/22 03:10:58;;;;;;;18.48;9.48;;;;;;;-3.29;78.31;101759.05;1676508;83;21418;-79
2020/12/22 03:13:26;;;;;;;18.73;9.60;;;;;;;-3.27;78.24;101763.83;1673058;84;21280;-80
2020/12/22 03:15:54;;;;;;;17.90;9.40;;;;;;;-3.25;78.23;101759.19;1684264;83;21176;-77
2020/12/22 03:18:23;;;;;;;22.07;9.98;;;;;;;-3.27;77.81;101761.63;1725147;82;21648;-76
2020/12/22 03:20:50;;;;;;;19.30;10.43;;;;;;;-3.27;77.88;101765.64;1715877;83;21156;-79
2020/12/22 03:23:19;;;;;;;;;;;;;;;-3.27;77.87;101768.33;1695787;84;21208;-79
2020/12/22 03:25:46;;;;;;;19.27;9.00;;;;;;;-3.29;77.78;101772.44;1684017;84;20416;-79
2020/12/22 03:28:14;;;;;;;20.05;9.60;;;;;;;-3.31;77.78;101770.38;1712715;84;21319;-79
2020/12/22 03:30:43;;;;;;;20.07;10.03;;;;;;;-3.33;77.75;101768.80;1723076;82;21596;-76
2020/12/22 03:33:11;;;;;;;20.05;9.40;;;;;;;-3.33;77.83;101772.34;1723877;83;21516;-79
2020/12/22 03:35:40;;;;;;;18.37;8.97;;;;;;;-3.33;77.76;101772.34;1706970;82;21635;-77
2020/12/22 03:38:07;;;;;;;21.57;10.05;;;;;;;-3.38;77.48;101769.17;1699150;84;21153;-76
2020/12/22 03:40:35;;;;;;;16.93;9.15;;;;;;;-3.39;77.62;101771.98;1703235;83;21568;-75
2020/12/22 03:43:03;;;;;;;19.42;9.73;;;;;;;-3.40;77.67;101770.27;1694220;84;21619;-77
2020/12/22 03:45:30;;;;;;;19.85;9.80;;;;;;;-3.41;77.71;101773.42;1698994;83;21278;-78
2020/12/22 03:47:58;;;;;;;18.07;9.23;;;;;;;-3.43;77.58;101776.72;1694320;84;21165;-77
2020/12/22 03:50:26;;;;;;;20.25;10.03;;;;;;;-3.48;77.77;101770.88;1692602;83;21199;-76
2020/12/22 03:52:54;;;;;;;22.70;10.25;;;;;;;-3.45;77.61;101780.48;1669797;84;21474;-75
2020/12/22 03:55:21;;;;;;;19.15;10.32;;;;;;;-3.46;77.83;101777.44;1668701;84;21184;-78
2020/12/22 03:57:49;;;;;;;19.52;10.10;;;;;;;-3.48;77.73;101774.89;1701166;84;21169;-79
2020/12/22 04:00:17;;;;;;;20.52;10.03;;;;;;;-3.47;77.73;101780.62;1702972;84;21208;-78
2020/12/22 04:02:47;;;;;;;20.50;10.07;;;;;;;-3.48;77.64;101776.23;1709298;84;21651;-76
2020/12/22 04:05:15;;;;;;;21.65;10.03;;;;;;;-3.50;77.82;101768.81;1713515;82;21149;-75
2020/12/22 04:07:43;;;;;;;;;;;;;;;-3.52;77.60;101777.45;1712331;84;21177;-76
2020/12/22 04:10:11;;;;;;;21.10;10.05;;;;;;;-3.53;77.95;101771.73;1692309;84;20245;-76
2020/12/22 04:12:39;;;;;;;21.93;9.88;;;;;;;-3.52;77.80;101768.09;1703298;84;21205;-78
2020/12/22 04:15:07;;;;;;;19.07;9.38;;;;;;;-3.50;77.73;101778.19;1713196;84;21188;-75
2020/12/22 04:17:35;;;;;;;20.17;10.28;;;;;;;-3.49;77.69;101777.70;1722735;82;21175;-79
2020/12/22 04:20:03;;;;;;;21.10;10.95;;;;;;;-3.50;77.58;101771.97;1723650;83;21160;-79
2020/12/22 04:22:31;;;;;;;;;;;;;;;-3.51;77.45;101762.23;1724654;83;21195;-81
2020/12/22 04:24:59;;;;;;;18.30;9.53;;;;;;;-3.50;77.42;101772.83;1692838;85;20182;-80
2020/12/22 04:27:27;;;;;;;17.48;9.15;;;;;;;-3.51;77.30;101772.45;1723863;83;21145;-79
2020/12/22 04:29:54;;;;;;;19.15;9.43;;;;;;;-3.52;77.14;101772.59;1723780;82;21218;-78
2020/12/22 04:32:22;;;;;;;20.10;10.28;;;;;;;-3.55;76.81;101769.66;1720677;83;21179;-78
2020/12/22 04:34:51;;;;;;;19.20;9.80;;;;;;;-3.57;77.08;101767.61;1671320;83;21159;-79
2020/12/22 04:37:19;;;;;;;19.80;10.03;;;;;;;-3.54;77.08;101771.35;1706025;83;21197;-78
2020/12/22 04:39:47;;;;;;;20.62;10.23;;;;;;;-3.55;76.96;101773.68;1697127;83;21168;-80
2020/12/22 04:42:15;;;;;;;20.32;9.80;;;;;;;-3.61;76.96;101767.94;1726613;82;21313;-78
2020/12/22 04:44:42;;;;;;;19.75;9.95;;;;;;;-3.65;77.14;101765.16;1670203;83;21675;-77
2020/12/22 04:47:10;;;;;;;20.08;9.73;;;;;;;-3.67;77.09;101767.97;1688081;83;21634;-77
2020/12/22 04:49:42;;;;;;;20.13;9.70;;;;;;;-3.68;76.68;101767.59;1720403;82;21157;-77
2020/12/22 04:52:12;;;;;;;20.17;9.53;;;;;;;-3.70;76.98;101764.66;1723670;83;21172;-79
2020/12/22 04:54:39;;;;;;;19.05;10.10;;;;;;;-3.71;76.81;101768.30;1722700;82;21208;-78
2020/12/22 04:57:07;;;;;;;20.02;9.78;;;;;;;-3.70;76.61;101764.19;1705542;83;21145;-79
2020/12/22 04:59:37;;;;;;;19.30;10.18;;;;;;;-3.73;76.46;101761.74;1720828;82;21141;-77
2020/12/22 05:02:05;;;;;;;19.57;9.70;;;;;;;-3.72;76.71;101754.09;1723710;83;21133;-78
2020/12/22 05:04:35;;;;;;;19.85;9.30;;;;;;;-3.71;76.67;101751.77;1711896;82;21852;-76
2020/12/22 05:07:07;;;;;;;21.17;9.60;;;;;;;-3.73;77.09;101759.06;1683353;85;21189;-78
2020/12/22 05:09:35;;;;;;;19.57;9.83;;;;;;;-3.72;77.06;101756.77;1681809;83;21991;-76
2020/12/22 05:12:05;;;;;;;19.53;10.03;;;;;;;-3.69;76.95;101763.70;1682074;85;21274;-75
2020/12/22 05:14:32;;;;;;;20.08;10.72;;;;;;;-3.69;76.81;101761.86;1693443;83;21859;-76
2020/12/22 05:17:00;;;;;;;19.55;9.45;;;;;;;-3.66;76.55;101766.11;1722157;82;21389;-76
2020/12/22 05:19:34;;;;;;;18.85;9.35;;;;;;;-3.67;76.66;101765.28;1686171;83;21133;-76
2020/12/22 05:21:59;;;;;;;20.50;9.23;;;;;;;-3.67;76.27;101763.95;1704153;82;21620;-79
2020/12/22 05:24:28;;;;;;;20.30;9.97;;;;;;;-3.68;76.43;101766.25;1677398;84;21230;-76
2020/12/22 05:26:58;;;;;;;18.42;9.10;;;;;;;-3.70;76.25;101774.89;1647747;83;21164;-79
2020/12/22 05:29:25;;;;;;;19.27;9.80;;;;;;;-3.69;76.04;101775.23;1658162;85;21204;-77
2020/12/22 05:31:53;;;;;;;22.52;10.35;;;;;;;-3.71;75.65;101774.98;1706582;84;21155;-77
2020/12/22 05:34:24;;;;;;;22.67;10.30;;;;;;;-3.74;75.90;101769.39;1702895;82;21179;-82
2020/12/22 05:36:52;;;;;;;23.03;10.43;;;;;;;-3.73;75.65;101778.27;1698121;84;21152;-79
2020/12/22 05:39:20;;;;;;;26.50;12.30;;;;;;;-3.76;75.76;101773.16;1662884;82;21188;-76
2020/12/22 05:41:47;;;;;;;21.50;9.88;;;;;;;-3.79;76.05;101772.91;1700373;82;21148;-78
2020/12/22 05:44:15;;;;;;;19.92;10.32;;;;;;;-3.77;75.94;101775.48;1703639;82;21596;-81
2020/12/22 05:46:44;;;;;;;;;;;;;;;-3.78;75.93;101770.61;1701799;83;21188;-82
2020/12/22 05:49:13;;;;;;;25.57;12.23;;;;;;;-3.76;75.74;101766.47;1671216;84;20178;-83
2020/12/22 05:51:44;;;;;;;19.60;10.05;;;;;;;-3.78;76.00;101759.91;1711424;83;21193;-81
2020/12/22 05:54:16;;;;;;;20.70;8.40;;;;;;;-3.79;75.96;101770.75;1699535;83;21675;-79
2020/12/22 05:56:45;;;;;;;21.17;10.27;;;;;;;-3.84;75.39;101769.74;1703070;83;21178;-79
2020/12/22 05:59:20;;;;;;;22.93;10.43;;;;;;;-3.91;75.67;101760.50;1701132;84;21151;-77
2020/12/22 06:01:48;;;;;;;24.97;9.83;;;;;;;-3.92;75.88;101764.12;1703767;84;21186;-76
2020/12/22 06:04:18;;;;;;;21.27;10.40;;;;;;;-3.91;75.46;101759.16;1697648;84;21300;-81
2020/12/22 06:06:47;;;;;;;20.20;9.47;;;;;;;-3.94;75.80;101757.58;1705514;83;21336;-80
2020/12/22 06:09:16;;;;;;;19.87;9.43;;;;;;;-3.95;76.02;101765.73;1723701;82;21568;-82
2020/12/22 06:11:47;;;;;;;19.83;9.57;;;;;;;-3.93;75.87;101758.44;1691583;84;22473;-79
2020/12/22 06:14:25;;;;;;;21.20;10.20;;;;;;;-3.91;75.85;101755.15;1726029;82;21668;-81
2020/12/22 06:16:56;;;;;;;21.73;10.53;;;;;;;-3.88;75.86;101760.27;1676388;84;21179;-77
2020/12/22 06:19:25;;;;;;;19.87;9.87;;;;;;;-3.85;75.70;101757.36;1685560;84;21191;-86
2020/12/22 06:21:57;;;;;;;20.03;9.70;;;;;;;-3.83;75.57;101762.09;1689141;84;21352;-81
2020/12/22 06:24:25;;;;;;;23.80;11.20;;;;;;;-3.81;75.66;101764.64;1685428;84;21602;-81
2020/12/22 06:27:01;;;;;;;18.85;9.10;;;;;;;-3.79;75.39;101773.42;1724116;83;21207;-83
2020/12/22 06:29:29;;;;;;;21.77;11.47;;;;;;;-3.80;75.26;101771.70;1697748;83;21172;-81
2020/12/22 06:32:23;;;;;;;20.35;9.23;;;;;;;-3.76;75.48;101773.16;1694739;83;21168;-84
2020/12/22 06:34:56;;;;;;;18.70;9.83;;;;;;;-3.73;75.27;101773.78;1709209;83;21153;-81
2020/12/22 06:37:43;;;;;;;18.53;9.10;;;;;;;-3.71;75.19;101773.17;1702309;83;22471;-80
2020/12/22 06:40:11;;;;;;;20.13;8.90;;;;;;;-3.67;74.94;101769.30;1680627;83;21172;-83
2020/12/22 06:42:47;;;;;;;19.90;9.60;;;;;;;-3.65;74.82;101763.34;1722952;83;21145;-86
2020/12/22 06:45:36;;;;;;;20.93;9.63;;;;;;;-3.61;74.85;101763.45;1653552;83;21299;-84
2020/12/22 06:48:04;;;;;;;21.00;9.80;;;;;;;-3.59;73.97;101762.01;1662848;84;21125;-85
2020/12/22 06:50:43;;;;;;;22.70;9.60;;;;;;;-3.59;74.42;101768.19;1699142;84;21172;-86
2020/12/22 06:53:34;;;;;;;19.53;10.30;;;;;;;-3.59;74.31;101760.16;1675514;84;21176;-85
2020/12/22 06:56:03;;;;;;;19.27;9.37;;;;;;;-3.56;74.41;101761.26;1663576;84;21195;-87
2020/12/22 06:58:43;;;;;;;22.00;9.73;;;;;;;-3.53;74.10;101767.72;1698501;84;21288;-83
2020/12/22 07:01:30;;;;;;;19.10;9.37;;;;;;;-3.48;74.09;101764.67;1697554;84;21164;-79
2020/12/22 07:04:18;;;;;;;18.45;9.50;;;;;;;-3.47;73.69;101766.38;1718748;83;21155;-81
2020/12/22 07:06:58;;;;;;;19.87;9.35;;;;;;;-3.48;73.44;101757.50;1720382;82;21168;-79
2020/12/22 07:09:32;;;;;;;18.87;9.10;;;;;;;-3.49;73.69;101749.09;1692170;83;21635;-77
2020/12/22 07:12:12;;;;;;;19.93;9.13;;;;;;;-3.49;73.54;101754.44;1704529;83;21862;-76
2020/12/22 07:14:47;;;;;;;23.33;9.60;;;;;;;-3.50;73.32;101753.23;1703984;83;21722;-79
2020/12/22 07:17:16;;;;;;;17.97;8.67;;;;;;;-3.51;73.41;101759.07;1706017;83;21188;-78
2020/12/22 07:19:49;;;;;;;19.90;9.17;;;;;;;-3.50;73.32;101755.44;1682824;84;21184;-72
2020/12/22 07:22:19;;;;;;;19.70;9.57;;;;;;;-3.50;73.30;101750.08;1678013;83;21203;-78
2020/12/22 07:24:47;;;;;;;22.15;8.78;;;;;;;-3.51;72.81;101756.39;1711413;83;21176;-79
2020/12/22 07:27:15;;;;;;;17.60;8.43;;;;;;;-3.57;72.98;101752.89;1695853;83;21172;-79
2020/12/22 07:29:43;;;;;;;17.50;8.55;;;;;;;-3.58;72.57;101752.98;1705396;84;21152;-79
2020/12/22 07:32:12;;;;;;;21.40;9.57;;;;;;;-3.58;72.60;101745.82;1693699;84;21180;-79
2020/12/22 07:34:42;;;;;;;20.27;9.20;;;;;;;-3.56;72.91;101747.02;1705173;83;21245;-77
2020/12/22 07:37:11;;;;;;;20.97;8.90;;;;;;;-3.56;73.24;101747.02;1705565;84;21167;-78
2020/12/22 07:39:39;;;;;;;24.13;10.00;;;;;;;-3.54;73.06;101750.45;1694515;83;21640;-78
2020/12/22 07:42:15;;;;;;;16.65;7.90;;;;;;;-3.55;73.13;101748.26;1683344;84;21326;-78
2020/12/22 07:44:44;;;;;;;18.33;8.30;;;;;;;-3.54;73.02;101750.45;1700178;83;21136;-76
2020/12/22 07:47:12;;;;;;;18.27;8.30;;;;;;;-3.54;72.49;101749.94;1706998;84;21709;-78
2020/12/22 07:49:41;;;;;;;;;;;;;;;-3.61;72.17;101748.73;1710256;83;21149;-78
2020/12/22 07:52:16;;;;;;;21.73;8.50;;;;;;;-3.62;72.42;101747.53;1712395;83;20523;-75
2020/12/22 07:54:57;;;;;;;17.03;8.40;;;;;;;-3.68;72.81;101748.86;1717374;82;21150;-78
2020/12/22 07:57:26;;;;;;;16.63;8.10;;;;;;;-3.64;72.57;101750.30;1695969;84;21168;-74
2020/12/22 08:00:08;;;;;;;;;;;;;;;-3.61;72.89;101746.05;1713200;82;21196;-79
2020/12/22 08:02:36;;;;;;;17.47;7.53;;;;;;;-3.56;72.77;101746.54;1700500;83;20194;-77
2020/12/22 08:05:11;;;;;;;17.37;7.40;;;;;;;-3.62;71.66;101739.02;1727954;82;21189;-76
2020/12/22 08:07:42;;;;;;;17.97;8.40;;;;;;;-3.65;72.48;101743.27;1699702;83;21280;-79
2020/12/22 08:10:12;;;;;;;15.27;7.73;;;;;;;-3.60;72.37;101737.06;1693728;83;21188;-75
2020/12/22 08:12:42;;;;;;;18.00;8.17;;;;;;;-3.56;72.30;101734.50;1691585;83;21163;-76
2020/12/22 08:15:11;;;;;;;19.17;8.53;;;;;;;-3.53;72.26;101730.25;1675012;84;21600;-76
2020/12/22 08:17:43;;;;;;;20.08;8.50;;;;;;;-3.48;72.48;101736.09;1698337;84;21625;-76
2020/12/22 08:20:12;;;;;;;16.10;8.07;;;;;;;-3.42;72.51;101731.59;1722101;82;21572;-77
2020/12/22 08:22:43;;;;;;;18.43;8.43;;;;;;;-3.37;72.25;101732.55;1723772;81;21217;-77
2020/12/22 08:25:11;;;;;;;18.40;9.27;;;;;;;-3.35;71.77;101728.78;1704330;82;21164;-76
2020/12/22 08:27:39;;;;;;;18.77;9.53;;;;;;;-3.34;71.76;101723.77;1683256;83;21608;-77
2020/12/22 08:30:21;;;;;;;18.25;8.60;;;;;;;-3.31;71.90;101730.22;1706144;84;21196;-76
2020/12/22 08:32:49;;;;;;;21.07;8.93;;;;;;;-3.28;71.75;101727.78;1721944;82;21596;-75
2020/12/22 08:35:21;;;;;;;18.65;9.18;;;;;;;-3.30;71.35;101727.92;1723542;83;21164;-75
2020/12/22 08:37:48;;;;;;;21.13;10.10;;;;;;;-3.29;71.79;101726.11;1722882;82;21143;-76
2020/12/22 08:40:30;;;;;;;21.55;9.85;;;;;;;-3.27;71.34;101729.02;1722849;82;21142;-76
2020/12/22 08:42:58;;;;;;;22.10;9.43;;;;;;;-3.27;71.46;101725.00;1713399;83;21619;-77
2020/12/22 08:45:28;;;;;;;24.23;10.30;;;;;;;-3.24;71.71;101718.04;1717845;82;21153;-77
2020/12/22 08:47:56;;;;;;;20.23;9.40;;;;;;;-3.22;71.73;101715.26;1722989;81;21200;-79
2020/12/22 08:50:24;;;;;;;25.17;9.98;;;;;;;-3.23;71.76;101712.20;1739137;81;21526;-76
2020/12/22 08:52:53;;;;;;;18.27;8.60;;;;;;;-3.23;71.76;101712.20;1729971;82;21156;-76
2020/12/22 08:55:21;;;;;;;21.20;9.15;;;;;;;-3.22;71.03;101714.77;1699667;82;21210;-74
2020/12/22 08:57:49;;;;;;;24.10;10.05;;;;;;;-3.26;71.13;101710.63;1672155;84;21141;-74
2020/12/22 09:00:17;;;;;;;;;;;;;;;-3.25;71.33;101707.47;1691423;83;21188;-75
2020/12/22 09:02:51;;;;;;;20.07;8.47;;;;;;;-3.25;71.28;101706.98;1700717;83;20173;-76
2020/12/22 09:05:19;;;;;;;18.30;8.83;;;;;;;-3.25;71.03;101704.30;1698456;83;22001;-77
2020/12/22 09:08:04;;;;;;;27.17;10.20;;;;;;;-3.24;71.42;101695.28;1693793;84;21675;-78
2020/12/22 09:10:32;;;;;;;19.47;9.77;;;;;;;-3.21;71.32;101691.50;1699174;82;21283;-78
2020/12/22 09:13:00;;;;;;;20.25;9.45;;;;;;;-3.16;71.79;101695.99;1685267;83;21163;-77
2020/12/22 09:15:28;;;;;;;21.37;9.05;;;;;;;-3.14;71.34;101694.55;1716046;82;21263;-79
2020/12/22 09:17:56;;;;;;;17.57;8.93;;;;;;;-3.17;71.42;101701.48;1710439;83;21282;-77
2020/12/22 09:20:24;;;;;;;20.23;9.38;;;;;;;-3.18;70.95;101696.61;1699676;83;21200;-82
2020/12/22 09:22:52;;;;;;;22.48;9.55;;;;;;;-3.25;71.48;101696.75;1700293;84;21314;-83
2020/12/22 09:25:20;;;;;;;18.45;9.45;;;;;;;-3.27;71.65;101698.23;1700100;83;21161;-80
2020/12/22 09:27:47;;;;;;;20.50;9.75;;;;;;;-3.28;71.14;101690.30;1699969;84;21144;-87
2020/12/22 09:30:16;;;;;;;18.03;8.23;;;;;;;-3.26;71.34;101695.90;1646672;84;21659;-77
2020/12/22 09:32:46;;;;;;;15.30;7.20;;;;;;;-3.24;71.17;101685.09;1700370;84;21176;-79
2020/12/22 09:35:14;;;;;;;15.50;8.13;;;;;;;-3.29;71.26;101676.06;1699047;84;21639;-78
2020/12/22 09:37:43;;;;;;;19.55;8.55;;;;;;;-3.26;71.69;101674.96;1700017;84;21164;-76
2020/12/22 09:40:10;;;;;;;18.85;9.00;;;;;;;-3.21;71.31;101671.42;1689649;84;21557;-77
2020/12/22 09:42:41;;;;;;;18.02;9.63;;;;;;;-3.17;71.31;101672.03;1700301;84;21203;-79
2020/12/22 09:45:10;;;;;;;19.03;8.53;;;;;;;-3.18;71.56;101667.64;1686314;84;21192;-77
2020/12/22 09:47:37;;;;;;;23.07;9.73;;;;;;;-3.13;71.56;101668.11;1700961;84;21601;-79
2020/12/22 09:50:06;;;;;;;20.37;9.60;;;;;;;-3.08;71.08;101656.53;1697972;83;21211;-78
2020/12/22 09:52:34;;;;;;;26.80;9.95;;;;;;;-3.06;71.03;101659.45;1674218;84;21179;-81
2020/12/22 09:55:02;;;;;;;19.63;9.27;;;;;;;-3.03;71.36;101650.31;1695052;84;21160;-73
2020/12/22 09:57:31;;;;;;;20.53;9.50;;;;;;;-3.00;71.13;101647.38;1695325;84;21223;-77
2020/12/22 09:59:59;;;;;;;21.25;9.60;;;;;;;-2.97;71.31;101649.81;1693892;83;21209;-76
2020/12/22 10:02:27;;;;;;;26.45;10.60;;;;;;;-2.93;70.85;101640.53;1695711;84;21132;-77
2020/12/22 10:04:57;;;;;;;22.83;10.70;;;;;;;-2.89;70.80;101641.51;1721486;81;21209;-75
2020/12/22 10:07:25;;;;;;;27.30;11.38;;;;;;;-2.91;70.30;101638.59;1641494;85;21299;-78
2020/12/22 10:09:54;;;;;;;26.42;11.63;;;;;;;-2.90;70.51;101641.62;1694549;84;21172;-78
2020/12/22 10:12:22;;;;;;;27.93;11.03;;;;;;;-2.87;70.80;101638.20;1698369;84;21643;-78
2020/12/22 10:14:51;;;;;;;24.47;11.40;;;;;;;-2.84;70.81;101637.09;1679315;84;21161;-81
2020/12/22 10:17:19;;;;;;;23.42;10.68;;;;;;;-2.80;70.64;101634.51;1695874;84;21180;-79
2020/12/22 10:19:47;;;;;;;22.82;11.40;;;;;;;-2.83;70.25;101629.41;1698311;84;21301;-79
2020/12/22 10:22:17;;;;;;;33.77;14.17;;;;;;;-2.85;70.62;101620.65;1696198;84;21614;-80
2020/12/22 10:24:45;;;;;;;29.05;13.70;;;;;;;-2.83;70.40;101617.34;1698549;83;21184;-77
2020/12/22 10:27:12;;;;;;;27.13;11.93;;;;;;;-2.82;70.98;101609.20;1694401;84;21867;-79
2020/12/22 10:29:42;;;;;;;24.03;12.07;;;;;;;-2.76;70.43;101602.48;1687811;83;21659;-76
2020/12/22 10:32:10;;;;;;;27.70;12.68;;;;;;;-2.76;70.90;101593.92;1682706;83;21172;-78
2020/12/22 10:34:37;;;;;;;24.82;12.93;;;;;;;-2.76;70.90;101593.92;1713684;83;21175;-76
2020/12/22 10:37:05;;;;;;;26.10;12.45;;;;;;;-2.69;70.36;101599.63;1708290;83;21676;-81
2020/12/22 10:39:34;;;;;;;28.12;12.45;;;;;;;-2.73;70.20;101593.67;1710891;83;21162;-80
2020/12/22 10:42:02;;;;;;;24.40;11.57;;;;;;;-2.79;70.81;101582.16;1711795;83;21172;-77
2020/12/22 10:44:30;;;;;;;22.65;11.05;;;;;;;-2.76;71.05;101587.73;1700520;83;21123;-84
2020/12/22 10:46:58;;;;;;;21.25;10.65;;;;;;;-2.71;71.08;101588.20;1714155;83;21146;-79
2020/12/22 10:49:26;;;;;;;27.52;12.65;;;;;;;-2.67;71.12;101578.91;1703600;82;21217;-79
2020/12/22 10:51:53;;;;;;;28.60;11.78;;;;;;;-2.64;70.54;101579.50;1699437;83;21209;-80
2020/12/22 10:54:23;;;;;;;24.75;11.75;;;;;;;-2.60;70.57;101574.23;1695692;83;21305;-78
2020/12/22 10:56:52;;;;;;;28.10;11.77;;;;;;;-2.55;70.40;101576.50;1692562;83;21158;-74
2020/12/22 10:59:20;;;;;;;22.95;11.73;;;;;;;-2.53;70.67;101575.05;1696582;83;21220;-76
2020/12/22 11:01:50;;;;;;;26.45;12.33;;;;;;;-2.52;70.52;101570.88;1696820;83;21613;-75
2020/12/22 11:04:20;;;;;;;23.33;11.80;;;;;;;-2.58;70.65;101566.07;1704959;83;21265;-77
2020/12/22 11:07:04;;;;;;;25.77;11.87;;;;;;;-2.60;70.34;101565.33;1702019;83;21279;-74
2020/12/22 11:09:28;;;;;;;24.20;11.30;;;;;;;-2.59;70.53;101568.38;1696568;84;21346;-73
2020/12/22 11:11:58;;;;;;;24.30;11.22;;;;;;;-2.59;70.56;101567.90;1692613;84;21263;-74
2020/12/22 11:14:26;;;;;;;24.80;11.37;;;;;;;-2.59;70.42;101569.23;1685516;84;21545;-78
2020/12/22 11:16:56;;;;;;;23.80;11.50;;;;;;;-2.61;70.35;101563.65;1691295;83;21209;-77
2020/12/22 11:19:24;;;;;;;24.90;12.07;;;;;;;-2.61;70.62;101573.03;1718399;82;21185;-77
2020/12/22 11:21:51;;;;;;;22.75;11.90;;;;;;;-2.62;70.46;101561.94;1696165;83;21232;-77
2020/12/22 11:24:20;;;;;;;20.00;9.75;;;;;;;-2.62;70.16;101576.67;1718914;82;21144;-79